sensor_id;sensor_type;location;lat;lon;timestamp;P1;durP1;ratioP1;P2;durP2;ratioP2
72095;SDS011;59968;51.084;16.748;2023-05-10T00:01:37;7.70;;;4.30;;
72095;SDS011;59968;51.084;16.748;2023-05-10T00:04:08;8.80;;;4.70;;
72095;SDS011;59968;51.084;16.748;2023-05-10T00:06:44;8.20;;;4.80;;
72095;SDS011;59968;51.084;16.748;2023-05-10T00:09:12;7.70;;;4.60;;
72095;SDS011;59968;51.084;16.748;2023-05-10T00:11:44;8.60;;;4.70;;
72095;SDS011;59968;51.084;16.748;2023-05-10T00:14:16;8.50;;;4.90;;
72095;SDS011;59968;51.084;16.748;2023-05-10T00:16:59;8.60;;;5.00;;
72095;SDS011;59968;51.084;16.748;2023-05-10T00:19:42;9.90;;;4.90;;
72095;SDS011;59968;51.084;16.748;2023-05-10T00:22:26;8.80;;;4.70;;
72095;SDS011;59968;51.084;16.748;2023-05-10T00:25:13;10.00;;;5.00;;
72095;SDS011;59968;51.084;16.748;2023-05-10T00:27:44;9.80;;;5.40;;
72095;SDS011;59968;51.084;16.748;2023-05-10T00:30:36;9.40;;;5.30;;
72095;SDS011;59968;51.084;16.748;2023-05-10T00:33:34;9.60;;;5.10;;
72095;SDS011;59968;51.084;16.748;2023-05-10T00:36:09;11.10;;;5.60;;
72095;SDS011;59968;51.084;16.748;2023-05-10T00:38:41;9.60;;;5.30;;
72095;SDS011;59968;51.084;16.748;2023-05-10T00:41:16;10.50;;;5.30;;
72095;SDS011;59968;51.084;16.748;2023-05-10T00:44:01;9.30;;;5.20;;
72095;SDS011;59968;51.084;16.748;2023-05-10T00:46:32;8.80;;;5.20;;
72095;SDS011;59968;51.084;16.748;2023-05-10T00:49:15;10.40;;;6.00;;
72095;SDS011;59968;51.084;16.748;2023-05-10T00:51:52;9.70;;;5.00;;
72095;SDS011;59968;51.084;16.748;2023-05-10T00:54:35;8.30;;;5.00;;
72095;SDS011;59968;51.084;16.748;2023-05-10T00:57:11;9.70;;;5.50;;
72095;SDS011;59968;51.084;16.748;2023-05-10T00:59:51;8.40;;;4.90;;
72095;SDS011;59968;51.084;16.748;2023-05-10T01:02:20;9.90;;;5.70;;
72095;SDS011;59968;51.084;16.748;2023-05-10T01:05:14;10.30;;;5.70;;
72095;SDS011;59968;51.084;16.748;2023-05-10T01:07:58;10.20;;;5.40;;
72095;SDS011;59968;51.084;16.748;2023-05-10T01:10:32;9.80;;;5.00;;
72095;SDS011;59968;51.084;16.748;2023-05-10T01:13:13;9.30;;;5.40;;
72095;SDS011;59968;51.084;16.748;2023-05-10T01:15:53;9.70;;;5.90;;
72095;SDS011;59968;51.084;16.748;2023-05-10T01:18:36;9.00;;;5.60;;
72095;SDS011;59968;51.084;16.748;2023-05-10T01:24:12;11.30;;;6.00;;
72095;SDS011;59968;51.084;16.748;2023-05-10T01:33:19;10.40;;;5.60;;
72095;SDS011;59968;51.084;16.748;2023-05-10T01:36:08;10.10;;;5.80;;
72095;SDS011;59968;51.084;16.748;2023-05-10T01:42:10;10.30;;;6.10;;
72095;SDS011;59968;51.084;16.748;2023-05-10T01:44:59;8.30;;;5.50;;
72095;SDS011;59968;51.084;16.748;2023-05-10T01:47:41;9.70;;;5.50;;
72095;SDS011;59968;51.084;16.748;2023-05-10T01:50:17;11.10;;;6.20;;
72095;SDS011;59968;51.084;16.748;2023-05-10T01:53:23;10.90;;;5.20;;
72095;SDS011;59968;51.084;16.748;2023-05-10T01:56:00;9.50;;;5.50;;
72095;SDS011;59968;51.084;16.748;2023-05-10T01:58:51;10.80;;;5.70;;
72095;SDS011;59968;51.084;16.748;2023-05-10T02:01:35;11.20;;;6.10;;
72095;SDS011;59968;51.084;16.748;2023-05-10T02:04:43;11.10;;;5.70;;
72095;SDS011;59968;51.084;16.748;2023-05-10T02:07:39;9.90;;;5.80;;
72095;SDS011;59968;51.084;16.748;2023-05-10T02:13:30;11.80;;;5.10;;
72095;SDS011;59968;51.084;16.748;2023-05-10T02:16:05;11.20;;;5.60;;
72095;SDS011;59968;51.084;16.748;2023-05-10T02:19:04;10.80;;;5.60;;
72095;SDS011;59968;51.084;16.748;2023-05-10T02:21:52;11.40;;;5.10;;
72095;SDS011;59968;51.084;16.748;2023-05-10T02:24:51;10.80;;;5.70;;
72095;SDS011;59968;51.084;16.748;2023-05-10T02:27:25;10.30;;;5.70;;
72095;SDS011;59968;51.084;16.748;2023-05-10T02:30:17;11.10;;;5.70;;
72095;SDS011;59968;51.084;16.748;2023-05-10T02:32:51;10.20;;;5.40;;
72095;SDS011;59968;51.084;16.748;2023-05-10T02:35:26;12.00;;;6.00;;
72095;SDS011;59968;51.084;16.748;2023-05-10T02:38:16;9.30;;;5.70;;
72095;SDS011;59968;51.084;16.748;2023-05-10T02:40:52;10.00;;;5.80;;
72095;SDS011;59968;51.084;16.748;2023-05-10T02:43:45;10.30;;;5.30;;
72095;SDS011;59968;51.084;16.748;2023-05-10T02:46:27;10.00;;;5.40;;
72095;SDS011;59968;51.084;16.748;2023-05-10T02:49:03;10.90;;;5.80;;
72095;SDS011;59968;51.084;16.748;2023-05-10T02:55:02;9.50;;;4.80;;
72095;SDS011;59968;51.084;16.748;2023-05-10T02:57:53;9.00;;;5.40;;
72095;SDS011;59968;51.084;16.748;2023-05-10T03:00:45;9.20;;;5.20;;
72095;SDS011;59968;51.084;16.748;2023-05-10T03:03:36;9.70;;;5.30;;
72095;SDS011;59968;51.084;16.748;2023-05-10T03:06:39;10.60;;;5.40;;
72095;SDS011;59968;51.084;16.748;2023-05-10T03:09:21;10.60;;;5.30;;
72095;SDS011;59968;51.084;16.748;2023-05-10T03:15:37;9.50;;;5.30;;
72095;SDS011;59968;51.084;16.748;2023-05-10T03:19:16;8.30;;;4.80;;
72095;SDS011;59968;51.084;16.748;2023-05-10T03:22:18;9.20;;;5.00;;
72095;SDS011;59968;51.084;16.748;2023-05-10T03:25:05;11.80;;;5.80;;
72095;SDS011;59968;51.084;16.748;2023-05-10T03:27:46;9.80;;;5.50;;
72095;SDS011;59968;51.084;16.748;2023-05-10T03:30:45;9.40;;;5.40;;
72095;SDS011;59968;51.084;16.748;2023-05-10T03:33:30;7.60;;;4.40;;
72095;SDS011;59968;51.084;16.748;2023-05-10T03:36:03;9.50;;;5.20;;
72095;SDS011;59968;51.084;16.748;2023-05-10T03:38:32;10.10;;;5.10;;
72095;SDS011;59968;51.084;16.748;2023-05-10T03:41:27;9.30;;;4.70;;
72095;SDS011;59968;51.084;16.748;2023-05-10T03:44:05;8.80;;;4.60;;
72095;SDS011;59968;51.084;16.748;2023-05-10T03:46:37;10.80;;;5.40;;
72095;SDS011;59968;51.084;16.748;2023-05-10T03:52:35;9.90;;;6.00;;
72095;SDS011;59968;51.084;16.748;2023-05-10T03:55:07;9.10;;;5.00;;
72095;SDS011;59968;51.084;16.748;2023-05-10T03:57:42;9.80;;;5.00;;
72095;SDS011;59968;51.084;16.748;2023-05-10T04:00:22;9.60;;;4.80;;
72095;SDS011;59968;51.084;16.748;2023-05-10T04:02:55;11.70;;;5.50;;
72095;SDS011;59968;51.084;16.748;2023-05-10T04:05:27;7.40;;;4.50;;
72095;SDS011;59968;51.084;16.748;2023-05-10T04:07:59;9.60;;;5.60;;
72095;SDS011;59968;51.084;16.748;2023-05-10T04:10:40;8.90;;;5.10;;
72095;SDS011;59968;51.084;16.748;2023-05-10T04:13:24;10.80;;;5.10;;
72095;SDS011;59968;51.084;16.748;2023-05-10T04:16:03;11.10;;;5.60;;
72095;SDS011;59968;51.084;16.748;2023-05-10T04:18:47;10.50;;;6.00;;
72095;SDS011;59968;51.084;16.748;2023-05-10T04:21:24;10.70;;;5.70;;
72095;SDS011;59968;51.084;16.748;2023-05-10T04:24:05;11.20;;;5.80;;
72095;SDS011;59968;51.084;16.748;2023-05-10T04:26:40;11.80;;;6.20;;
72095;SDS011;59968;51.084;16.748;2023-05-10T04:29:20;11.50;;;5.60;;
72095;SDS011;59968;51.084;16.748;2023-05-10T04:32:12;10.40;;;5.80;;
72095;SDS011;59968;51.084;16.748;2023-05-10T04:37:38;10.30;;;5.10;;
72095;SDS011;59968;51.084;16.748;2023-05-10T04:40:46;11.30;;;5.50;;
72095;SDS011;59968;51.084;16.748;2023-05-10T04:43:23;9.40;;;5.70;;
72095;SDS011;59968;51.084;16.748;2023-05-10T04:46:05;12.20;;;5.50;;
72095;SDS011;59968;51.084;16.748;2023-05-10T04:51:36;11.00;;;5.60;;
72095;SDS011;59968;51.084;16.748;2023-05-10T04:54:13;12.30;;;6.20;;
72095;SDS011;59968;51.084;16.748;2023-05-10T04:57:08;10.70;;;5.50;;
72095;SDS011;59968;51.084;16.748;2023-05-10T04:59:42;10.90;;;5.50;;
72095;SDS011;59968;51.084;16.748;2023-05-10T05:05:11;10.20;;;5.30;;
72095;SDS011;59968;51.084;16.748;2023-05-10T05:08:14;9.30;;;5.40;;
72095;SDS011;59968;51.084;16.748;2023-05-10T05:11:01;13.20;;;5.70;;
72095;SDS011;59968;51.084;16.748;2023-05-10T05:13:46;9.80;;;5.40;;
72095;SDS011;59968;51.084;16.748;2023-05-10T05:16:33;12.30;;;5.80;;
72095;SDS011;59968;51.084;16.748;2023-05-10T05:19:02;11.30;;;5.00;;
72095;SDS011;59968;51.084;16.748;2023-05-10T05:21:34;10.90;;;5.70;;
72095;SDS011;59968;51.084;16.748;2023-05-10T05:24:16;10.00;;;5.40;;
72095;SDS011;59968;51.084;16.748;2023-05-10T05:26:48;10.20;;;5.80;;
72095;SDS011;59968;51.084;16.748;2023-05-10T05:29:25;9.50;;;5.20;;
72095;SDS011;59968;51.084;16.748;2023-05-10T05:32:06;9.20;;;5.00;;
72095;SDS011;59968;51.084;16.748;2023-05-10T05:34:50;10.40;;;5.40;;
72095;SDS011;59968;51.084;16.748;2023-05-10T05:37:32;8.90;;;5.10;;
72095;SDS011;59968;51.084;16.748;2023-05-10T05:40:16;8.90;;;5.50;;
72095;SDS011;59968;51.084;16.748;2023-05-10T05:42:51;10.50;;;5.80;;
72095;SDS011;59968;51.084;16.748;2023-05-10T05:45:25;9.90;;;6.00;;
72095;SDS011;59968;51.084;16.748;2023-05-10T05:48:05;8.80;;;4.70;;
72095;SDS011;59968;51.084;16.748;2023-05-10T05:51:10;8.30;;;4.50;;
72095;SDS011;59968;51.084;16.748;2023-05-10T05:53:41;10.10;;;5.00;;
72095;SDS011;59968;51.084;16.748;2023-05-10T05:56:13;8.00;;;4.90;;
72095;SDS011;59968;51.084;16.748;2023-05-10T05:58:52;9.50;;;5.30;;
72095;SDS011;59968;51.084;16.748;2023-05-10T06:01:34;10.30;;;5.20;;
72095;SDS011;59968;51.084;16.748;2023-05-10T06:04:08;9.10;;;5.30;;
72095;SDS011;59968;51.084;16.748;2023-05-10T06:06:41;8.00;;;5.00;;
72095;SDS011;59968;51.084;16.748;2023-05-10T06:09:16;7.60;;;4.90;;
72095;SDS011;59968;51.084;16.748;2023-05-10T06:11:58;11.00;;;5.30;;
72095;SDS011;59968;51.084;16.748;2023-05-10T06:14:29;8.00;;;4.40;;
72095;SDS011;59968;51.084;16.748;2023-05-10T06:16:58;8.90;;;5.30;;
72095;SDS011;59968;51.084;16.748;2023-05-10T06:19:34;8.80;;;5.00;;
72095;SDS011;59968;51.084;16.748;2023-05-10T06:22:15;9.20;;;5.10;;
72095;SDS011;59968;51.084;16.748;2023-05-10T06:25:00;7.80;;;4.80;;
72095;SDS011;59968;51.084;16.748;2023-05-10T06:27:33;8.80;;;5.30;;
72095;SDS011;59968;51.084;16.748;2023-05-10T06:30:08;7.00;;;4.40;;
72095;SDS011;59968;51.084;16.748;2023-05-10T06:32:56;8.70;;;4.70;;
72095;SDS011;59968;51.084;16.748;2023-05-10T06:35:31;8.20;;;4.90;;
72095;SDS011;59968;51.084;16.748;2023-05-10T06:38:09;9.50;;;4.80;;
72095;SDS011;59968;51.084;16.748;2023-05-10T06:40:40;8.80;;;4.90;;
72095;SDS011;59968;51.084;16.748;2023-05-10T06:43:10;8.80;;;4.70;;
72095;SDS011;59968;51.084;16.748;2023-05-10T06:45:40;8.20;;;4.50;;
72095;SDS011;59968;51.084;16.748;2023-05-10T06:48:09;7.20;;;4.30;;
72095;SDS011;59968;51.084;16.748;2023-05-10T06:50:48;6.60;;;3.90;;
72095;SDS011;59968;51.084;16.748;2023-05-10T06:53:17;6.60;;;3.90;;
72095;SDS011;59968;51.084;16.748;2023-05-10T06:55:50;7.50;;;4.60;;
72095;SDS011;59968;51.084;16.748;2023-05-10T06:58:22;7.50;;;4.60;;
72095;SDS011;59968;51.084;16.748;2023-05-10T07:01:01;7.20;;;4.20;;
72095;SDS011;59968;51.084;16.748;2023-05-10T07:03:36;7.80;;;3.70;;
72095;SDS011;59968;51.084;16.748;2023-05-10T07:06:08;8.20;;;3.70;;
72095;SDS011;59968;51.084;16.748;2023-05-10T07:08:57;8.00;;;3.60;;
72095;SDS011;59968;51.084;16.748;2023-05-10T07:11:26;6.90;;;3.60;;
72095;SDS011;59968;51.084;16.748;2023-05-10T07:13:58;6.90;;;3.90;;
72095;SDS011;59968;51.084;16.748;2023-05-10T07:16:37;7.20;;;3.50;;
72095;SDS011;59968;51.084;16.748;2023-05-10T07:19:07;5.90;;;3.30;;
72095;SDS011;59968;51.084;16.748;2023-05-10T07:21:39;6.00;;;3.60;;
72095;SDS011;59968;51.084;16.748;2023-05-10T07:24:17;6.50;;;3.60;;
72095;SDS011;59968;51.084;16.748;2023-05-10T07:26:46;7.40;;;3.70;;
72095;SDS011;59968;51.084;16.748;2023-05-10T07:29:16;5.80;;;3.30;;
72095;SDS011;59968;51.084;16.748;2023-05-10T07:31:44;6.10;;;3.40;;
72095;SDS011;59968;51.084;16.748;2023-05-10T07:34:13;7.20;;;3.40;;
72095;SDS011;59968;51.084;16.748;2023-05-10T07:36:42;8.50;;;3.80;;
72095;SDS011;59968;51.084;16.748;2023-05-10T07:39:14;6.30;;;3.20;;
72095;SDS011;59968;51.084;16.748;2023-05-10T07:41:54;5.20;;;3.00;;
72095;SDS011;59968;51.084;16.748;2023-05-10T07:44:23;6.20;;;3.40;;
72095;SDS011;59968;51.084;16.748;2023-05-10T07:46:52;7.10;;;3.00;;
72095;SDS011;59968;51.084;16.748;2023-05-10T07:49:21;6.00;;;3.60;;
72095;SDS011;59968;51.084;16.748;2023-05-10T07:51:54;6.30;;;3.40;;
72095;SDS011;59968;51.084;16.748;2023-05-10T07:54:22;5.20;;;2.90;;
72095;SDS011;59968;51.084;16.748;2023-05-10T07:56:51;7.20;;;3.60;;
72095;SDS011;59968;51.084;16.748;2023-05-10T07:59:20;5.50;;;3.40;;
72095;SDS011;59968;51.084;16.748;2023-05-10T08:01:49;5.90;;;3.20;;
72095;SDS011;59968;51.084;16.748;2023-05-10T08:04:18;6.50;;;3.20;;
72095;SDS011;59968;51.084;16.748;2023-05-10T08:06:47;6.00;;;3.50;;
72095;SDS011;59968;51.084;16.748;2023-05-10T08:09:16;5.20;;;3.00;;
72095;SDS011;59968;51.084;16.748;2023-05-10T08:11:46;5.60;;;3.10;;
72095;SDS011;59968;51.084;16.748;2023-05-10T08:14:18;5.30;;;3.30;;
72095;SDS011;59968;51.084;16.748;2023-05-10T08:16:50;5.90;;;3.20;;
72095;SDS011;59968;51.084;16.748;2023-05-10T08:19:18;6.00;;;2.90;;
72095;SDS011;59968;51.084;16.748;2023-05-10T08:21:49;7.60;;;3.30;;
72095;SDS011;59968;51.084;16.748;2023-05-10T08:24:18;5.10;;;3.30;;
72095;SDS011;59968;51.084;16.748;2023-05-10T08:26:47;4.20;;;3.00;;
72095;SDS011;59968;51.084;16.748;2023-05-10T08:29:16;4.10;;;3.00;;
72095;SDS011;59968;51.084;16.748;2023-05-10T08:31:45;5.40;;;2.80;;
72095;SDS011;59968;51.084;16.748;2023-05-10T08:34:14;5.60;;;2.90;;
72095;SDS011;59968;51.084;16.748;2023-05-10T08:36:43;4.40;;;2.30;;
72095;SDS011;59968;51.084;16.748;2023-05-10T08:39:12;4.40;;;2.80;;
72095;SDS011;59968;51.084;16.748;2023-05-10T08:41:57;5.10;;;2.80;;
72095;SDS011;59968;51.084;16.748;2023-05-10T08:44:32;5.40;;;3.10;;
72095;SDS011;59968;51.084;16.748;2023-05-10T08:47:04;4.60;;;3.00;;
72095;SDS011;59968;51.084;16.748;2023-05-10T08:49:35;3.80;;;2.90;;
72095;SDS011;59968;51.084;16.748;2023-05-10T08:52:06;5.00;;;2.70;;
72095;SDS011;59968;51.084;16.748;2023-05-10T08:54:36;6.70;;;2.90;;
72095;SDS011;59968;51.084;16.748;2023-05-10T08:57:06;3.70;;;2.60;;
72095;SDS011;59968;51.084;16.748;2023-05-10T08:59:35;3.60;;;2.70;;
72095;SDS011;59968;51.084;16.748;2023-05-10T09:02:07;5.20;;;3.60;;
72095;SDS011;59968;51.084;16.748;2023-05-10T09:04:39;5.80;;;3.30;;
72095;SDS011;59968;51.084;16.748;2023-05-10T09:07:08;4.30;;;2.70;;
72095;SDS011;59968;51.084;16.748;2023-05-10T09:09:36;6.00;;;2.90;;
72095;SDS011;59968;51.084;16.748;2023-05-10T09:12:05;7.40;;;3.20;;
72095;SDS011;59968;51.084;16.748;2023-05-10T09:14:35;4.40;;;3.20;;
72095;SDS011;59968;51.084;16.748;2023-05-10T09:17:04;3.80;;;2.50;;
72095;SDS011;59968;51.084;16.748;2023-05-10T09:19:33;4.00;;;2.90;;
72095;SDS011;59968;51.084;16.748;2023-05-10T09:22:02;4.00;;;2.80;;
72095;SDS011;59968;51.084;16.748;2023-05-10T09:24:30;4.80;;;3.00;;
72095;SDS011;59968;51.084;16.748;2023-05-10T09:26:59;5.10;;;3.00;;
72095;SDS011;59968;51.084;16.748;2023-05-10T09:29:38;7.10;;;3.70;;
72095;SDS011;59968;51.084;16.748;2023-05-10T09:32:08;4.90;;;3.10;;
72095;SDS011;59968;51.084;16.748;2023-05-10T09:34:37;5.90;;;2.80;;
72095;SDS011;59968;51.084;16.748;2023-05-10T09:37:09;4.60;;;3.20;;
72095;SDS011;59968;51.084;16.748;2023-05-10T09:39:39;4.10;;;3.20;;
72095;SDS011;59968;51.084;16.748;2023-05-10T09:42:09;4.00;;;2.80;;
72095;SDS011;59968;51.084;16.748;2023-05-10T09:44:38;5.00;;;3.10;;
72095;SDS011;59968;51.084;16.748;2023-05-10T09:47:09;5.50;;;2.80;;
72095;SDS011;59968;51.084;16.748;2023-05-10T09:49:37;4.50;;;2.70;;
72095;SDS011;59968;51.084;16.748;2023-05-10T09:52:10;6.10;;;3.40;;
72095;SDS011;59968;51.084;16.748;2023-05-10T09:54:39;4.50;;;2.90;;
72095;SDS011;59968;51.084;16.748;2023-05-10T09:57:21;5.50;;;2.70;;
72095;SDS011;59968;51.084;16.748;2023-05-10T09:59:50;4.50;;;2.80;;
72095;SDS011;59968;51.084;16.748;2023-05-10T10:02:21;4.50;;;2.50;;
72095;SDS011;59968;51.084;16.748;2023-05-10T10:04:58;5.00;;;2.90;;
72095;SDS011;59968;51.084;16.748;2023-05-10T10:07:29;3.70;;;2.70;;
72095;SDS011;59968;51.084;16.748;2023-05-10T10:09:58;4.80;;;2.60;;
72095;SDS011;59968;51.084;16.748;2023-05-10T10:12:28;5.90;;;2.80;;
72095;SDS011;59968;51.084;16.748;2023-05-10T10:14:56;4.70;;;2.80;;
72095;SDS011;59968;51.084;16.748;2023-05-10T10:17:27;6.50;;;3.10;;
72095;SDS011;59968;51.084;16.748;2023-05-10T10:19:58;4.00;;;2.70;;
72095;SDS011;59968;51.084;16.748;2023-05-10T10:22:27;4.10;;;2.60;;
72095;SDS011;59968;51.084;16.748;2023-05-10T10:24:55;4.00;;;2.80;;
72095;SDS011;59968;51.084;16.748;2023-05-10T10:35:54;3.90;;;2.60;;
72095;SDS011;59968;51.084;16.748;2023-05-10T10:38:23;4.10;;;2.70;;
72095;SDS011;59968;51.084;16.748;2023-05-10T10:41:02;5.40;;;2.80;;
72095;SDS011;59968;51.084;16.748;2023-05-10T10:43:36;3.80;;;2.70;;
72095;SDS011;59968;51.084;16.748;2023-05-10T10:46:17;4.70;;;2.60;;
72095;SDS011;59968;51.084;16.748;2023-05-10T10:48:50;4.80;;;2.90;;
72095;SDS011;59968;51.084;16.748;2023-05-10T10:51:37;5.50;;;2.70;;
72095;SDS011;59968;51.084;16.748;2023-05-10T10:54:09;4.10;;;2.90;;
72095;SDS011;59968;51.084;16.748;2023-05-10T10:56:39;5.20;;;3.00;;
72095;SDS011;59968;51.084;16.748;2023-05-10T10:59:08;4.50;;;2.20;;
72095;SDS011;59968;51.084;16.748;2023-05-10T11:01:36;4.90;;;2.70;;
72095;SDS011;59968;51.084;16.748;2023-05-10T11:06:40;5.30;;;2.90;;
72095;SDS011;59968;51.084;16.748;2023-05-10T11:09:11;3.70;;;2.60;;
72095;SDS011;59968;51.084;16.748;2023-05-10T11:11:58;6.90;;;3.40;;
72095;SDS011;59968;51.084;16.748;2023-05-10T11:14:28;5.00;;;2.80;;
72095;SDS011;59968;51.084;16.748;2023-05-10T11:17:00;3.50;;;2.50;;
72095;SDS011;59968;51.084;16.748;2023-05-10T11:19:29;3.90;;;2.20;;
72095;SDS011;59968;51.084;16.748;2023-05-10T11:24:34;4.90;;;2.70;;
72095;SDS011;59968;51.084;16.748;2023-05-10T11:27:03;3.40;;;2.40;;
72095;SDS011;59968;51.084;16.748;2023-05-10T11:29:33;5.50;;;3.00;;
72095;SDS011;59968;51.084;16.748;2023-05-10T11:32:02;5.10;;;2.40;;
72095;SDS011;59968;51.084;16.748;2023-05-10T11:34:36;3.40;;;2.70;;
72095;SDS011;59968;51.084;16.748;2023-05-10T11:37:04;3.60;;;2.50;;
72095;SDS011;59968;51.084;16.748;2023-05-10T11:39:33;3.20;;;2.20;;
72095;SDS011;59968;51.084;16.748;2023-05-10T11:42:02;2.80;;;2.50;;
72095;SDS011;59968;51.084;16.748;2023-05-10T11:44:31;3.60;;;2.20;;
72095;SDS011;59968;51.084;16.748;2023-05-10T11:47:00;3.00;;;2.30;;
72095;SDS011;59968;51.084;16.748;2023-05-10T11:49:29;2.20;;;1.90;;
72095;SDS011;59968;51.084;16.748;2023-05-10T11:52:07;2.50;;;1.90;;
72095;SDS011;59968;51.084;16.748;2023-05-10T11:54:36;4.20;;;2.20;;
72095;SDS011;59968;51.084;16.748;2023-05-10T11:57:04;4.30;;;2.40;;
72095;SDS011;59968;51.084;16.748;2023-05-10T11:59:33;3.80;;;2.10;;
72095;SDS011;59968;51.084;16.748;2023-05-10T12:02:01;4.20;;;2.50;;
72095;SDS011;59968;51.084;16.748;2023-05-10T12:04:32;2.70;;;2.10;;
72095;SDS011;59968;51.084;16.748;2023-05-10T12:07:01;3.30;;;2.10;;
72095;SDS011;59968;51.084;16.748;2023-05-10T12:09:31;3.70;;;2.00;;
72095;SDS011;59968;51.084;16.748;2023-05-10T12:12:17;18.50;;;2.40;;
72095;SDS011;59968;51.084;16.748;2023-05-10T12:14:48;3.00;;;2.00;;
72095;SDS011;59968;51.084;16.748;2023-05-10T12:17:19;2.60;;;2.30;;
72095;SDS011;59968;51.084;16.748;2023-05-10T12:19:48;3.30;;;2.10;;
72095;SDS011;59968;51.084;16.748;2023-05-10T12:22:20;7.80;;;2.50;;
72095;SDS011;59968;51.084;16.748;2023-05-10T12:24:50;2.50;;;1.90;;
72095;SDS011;59968;51.084;16.748;2023-05-10T12:27:19;2.70;;;2.40;;
72095;SDS011;59968;51.084;16.748;2023-05-10T12:29:48;3.60;;;2.40;;
72095;SDS011;59968;51.084;16.748;2023-05-10T12:32:18;4.00;;;2.20;;
72095;SDS011;59968;51.084;16.748;2023-05-10T12:34:47;3.80;;;2.60;;
72095;SDS011;59968;51.084;16.748;2023-05-10T12:37:17;3.50;;;2.60;;
72095;SDS011;59968;51.084;16.748;2023-05-10T12:39:53;4.90;;;2.40;;
72095;SDS011;59968;51.084;16.748;2023-05-10T12:42:21;4.10;;;2.40;;
72095;SDS011;59968;51.084;16.748;2023-05-10T12:44:54;3.60;;;2.30;;
72095;SDS011;59968;51.084;16.748;2023-05-10T12:47:25;3.20;;;2.10;;
72095;SDS011;59968;51.084;16.748;2023-05-10T12:49:54;3.80;;;2.40;;
72095;SDS011;59968;51.084;16.748;2023-05-10T12:52:24;4.00;;;2.50;;
72095;SDS011;59968;51.084;16.748;2023-05-10T12:54:54;3.30;;;2.40;;
72095;SDS011;59968;51.084;16.748;2023-05-10T12:57:23;14.30;;;2.80;;
72095;SDS011;59968;51.084;16.748;2023-05-10T12:59:52;2.70;;;2.40;;
72095;SDS011;59968;51.084;16.748;2023-05-10T13:02:21;2.80;;;2.40;;
72095;SDS011;59968;51.084;16.748;2023-05-10T13:04:52;4.40;;;2.20;;
72095;SDS011;59968;51.084;16.748;2023-05-10T13:07:23;5.10;;;2.20;;
72095;SDS011;59968;51.084;16.748;2023-05-10T13:09:52;3.90;;;2.00;;
72095;SDS011;59968;51.084;16.748;2023-05-10T13:12:20;3.40;;;1.90;;
72095;SDS011;59968;51.084;16.748;2023-05-10T13:14:48;2.90;;;2.00;;
72095;SDS011;59968;51.084;16.748;2023-05-10T13:17:17;3.80;;;2.70;;
72095;SDS011;59968;51.084;16.748;2023-05-10T13:19:46;3.60;;;2.00;;
72095;SDS011;59968;51.084;16.748;2023-05-10T13:22:14;3.10;;;2.10;;
72095;SDS011;59968;51.084;16.748;2023-05-10T13:24:55;3.10;;;2.30;;
72095;SDS011;59968;51.084;16.748;2023-05-10T13:27:24;3.70;;;2.20;;
72095;SDS011;59968;51.084;16.748;2023-05-10T13:29:54;3.10;;;2.50;;
72095;SDS011;59968;51.084;16.748;2023-05-10T13:32:24;4.00;;;2.20;;
72095;SDS011;59968;51.084;16.748;2023-05-10T13:34:54;3.00;;;2.10;;
72095;SDS011;59968;51.084;16.748;2023-05-10T13:37:23;3.80;;;2.10;;
72095;SDS011;59968;51.084;16.748;2023-05-10T13:39:51;3.60;;;1.90;;
72095;SDS011;59968;51.084;16.748;2023-05-10T13:42:19;2.30;;;2.10;;
72095;SDS011;59968;51.084;16.748;2023-05-10T13:44:49;2.80;;;2.10;;
72095;SDS011;59968;51.084;16.748;2023-05-10T13:47:20;2.80;;;1.90;;
72095;SDS011;59968;51.084;16.748;2023-05-10T13:49:50;2.50;;;2.20;;
72095;SDS011;59968;51.084;16.748;2023-05-10T13:52:21;3.40;;;2.60;;
72095;SDS011;59968;51.084;16.748;2023-05-10T13:54:51;2.90;;;2.00;;
72095;SDS011;59968;51.084;16.748;2023-05-10T13:57:23;2.60;;;2.00;;
72095;SDS011;59968;51.084;16.748;2023-05-10T13:59:55;2.20;;;1.90;;
72095;SDS011;59968;51.084;16.748;2023-05-10T14:02:26;2.70;;;2.20;;
72095;SDS011;59968;51.084;16.748;2023-05-10T14:04:55;3.10;;;2.20;;
72095;SDS011;59968;51.084;16.748;2023-05-10T14:07:24;3.50;;;2.40;;
72095;SDS011;59968;51.084;16.748;2023-05-10T14:09:52;4.60;;;2.40;;
72095;SDS011;59968;51.084;16.748;2023-05-10T14:12:22;2.40;;;1.90;;
72095;SDS011;59968;51.084;16.748;2023-05-10T14:14:51;15.20;;;2.50;;
72095;SDS011;59968;51.084;16.748;2023-05-10T14:17:20;4.50;;;2.30;;
72095;SDS011;59968;51.084;16.748;2023-05-10T14:19:49;2.30;;;2.00;;
72095;SDS011;59968;51.084;16.748;2023-05-10T14:22:17;8.20;;;2.20;;
72095;SDS011;59968;51.084;16.748;2023-05-10T14:24:46;3.70;;;1.80;;
72095;SDS011;59968;51.084;16.748;2023-05-10T14:27:15;2.50;;;2.00;;
72095;SDS011;59968;51.084;16.748;2023-05-10T14:29:44;2.60;;;2.00;;
72095;SDS011;59968;51.084;16.748;2023-05-10T14:32:14;3.70;;;2.70;;
72095;SDS011;59968;51.084;16.748;2023-05-10T14:34:44;3.50;;;2.50;;
72095;SDS011;59968;51.084;16.748;2023-05-10T14:37:16;3.30;;;2.20;;
72095;SDS011;59968;51.084;16.748;2023-05-10T14:39:50;4.80;;;2.50;;
72095;SDS011;59968;51.084;16.748;2023-05-10T14:42:28;3.40;;;2.20;;
72095;SDS011;59968;51.084;16.748;2023-05-10T14:45:03;5.40;;;2.10;;
72095;SDS011;59968;51.084;16.748;2023-05-10T14:47:40;2.10;;;1.90;;
72095;SDS011;59968;51.084;16.748;2023-05-10T14:50:14;2.60;;;2.00;;
72095;SDS011;59968;51.084;16.748;2023-05-10T14:53:07;2.60;;;1.80;;
72095;SDS011;59968;51.084;16.748;2023-05-10T14:55:40;2.90;;;1.90;;
72095;SDS011;59968;51.084;16.748;2023-05-10T14:58:13;2.60;;;2.20;;
72095;SDS011;59968;51.084;16.748;2023-05-10T15:00:51;3.30;;;2.10;;
72095;SDS011;59968;51.084;16.748;2023-05-10T15:03:32;2.30;;;2.00;;
72095;SDS011;59968;51.084;16.748;2023-05-10T15:06:16;3.00;;;2.50;;
72095;SDS011;59968;51.084;16.748;2023-05-10T15:08:52;4.60;;;2.10;;
72095;SDS011;59968;51.084;16.748;2023-05-10T15:11:36;5.00;;;2.40;;
72095;SDS011;59968;51.084;16.748;2023-05-10T15:14:36;3.60;;;2.00;;
72095;SDS011;59968;51.084;16.748;2023-05-10T15:17:22;2.40;;;1.90;;
72095;SDS011;59968;51.084;16.748;2023-05-10T15:19:58;3.20;;;2.00;;
72095;SDS011;59968;51.084;16.748;2023-05-10T15:22:45;2.30;;;1.70;;
72095;SDS011;59968;51.084;16.748;2023-05-10T15:25:25;4.00;;;2.00;;
72095;SDS011;59968;51.084;16.748;2023-05-10T15:28:17;2.50;;;2.30;;
72095;SDS011;59968;51.084;16.748;2023-05-10T15:30:56;4.30;;;2.00;;
72095;SDS011;59968;51.084;16.748;2023-05-10T15:33:31;3.20;;;1.80;;
72095;SDS011;59968;51.084;16.748;2023-05-10T15:36:24;3.40;;;2.30;;
72095;SDS011;59968;51.084;16.748;2023-05-10T15:39:02;4.50;;;2.30;;
72095;SDS011;59968;51.084;16.748;2023-05-10T15:41:42;2.50;;;1.90;;
72095;SDS011;59968;51.084;16.748;2023-05-10T15:44:30;3.50;;;1.90;;
72095;SDS011;59968;51.084;16.748;2023-05-10T15:47:14;5.30;;;2.00;;
72095;SDS011;59968;51.084;16.748;2023-05-10T15:50:03;2.60;;;1.90;;
72095;SDS011;59968;51.084;16.748;2023-05-10T15:52:38;4.50;;;2.50;;
72095;SDS011;59968;51.084;16.748;2023-05-10T15:55:13;3.50;;;2.30;;
72095;SDS011;59968;51.084;16.748;2023-05-10T15:57:43;4.10;;;2.10;;
72095;SDS011;59968;51.084;16.748;2023-05-10T16:00:13;4.60;;;1.90;;
72095;SDS011;59968;51.084;16.748;2023-05-10T16:02:46;2.90;;;2.40;;
72095;SDS011;59968;51.084;16.748;2023-05-10T16:05:16;2.20;;;1.90;;
72095;SDS011;59968;51.084;16.748;2023-05-10T16:07:45;2.80;;;2.10;;
72095;SDS011;59968;51.084;16.748;2023-05-10T16:10:14;3.70;;;1.90;;
72095;SDS011;59968;51.084;16.748;2023-05-10T16:12:43;3.40;;;2.00;;